Time;durP1;ratioP1;P1;durP2;ratioP2;P2;SDS_P1;SDS_P2;PMS_P1;PMS_P2;Temp;Humidity;BMP_temperature;BMP_pressure;BME280_temperature;BME280_humidity;BME280_pressure;Samples;Min_cycle;Max_cycle;Signal;HPM_P1;HPM_P2
2022/12/28 00:02:39;;;;;;;;;;;0.40;99.90;;;;;;5033275;28;19952;-71
2022/12/28 00:05:10;;;;;;;;;;;0.40;99.90;;;;;;5007135;28;20016;-69
2022/12/28 00:07:38;;;;;;;;;;;0.50;99.90;;;;;;5015512;28;19925;-69
2022/12/28 00:10:09;;;;;;;;;;;0.50;99.90;;;;;;5024328;28;20020;-70
2022/12/28 00:12:39;;;;;;;;;;;0.50;99.90;;;;;;4980363;28;19929;-71
2022/12/28 00:15:08;;;;;;;;;;;0.60;99.90;;;;;;4983649;28;19932;-70
2022/12/28 00:17:37;;;;;;;;;;;0.60;99.90;;;;;;4999796;28;20003;-70
2022/12/28 00:20:06;;;;;;;;;;;0.70;99.90;;;;;;5012572;28;19930;-72
2022/12/28 00:22:36;;;;;;;;;;;0.70;99.90;;;;;;5000806;28;19935;-70
2022/12/28 00:25:06;;;;;;;;;;;0.80;99.90;;;;;;5003309;28;19929;-69
2022/12/28 00:27:35;;;;;;;;;;;0.80;99.90;;;;;;5018492;28;19925;-70
2022/12/28 00:30:05;;;;;;;;;;;0.90;99.90;;;;;;5025648;28;19932;-70
2022/12/28 00:32:35;;;;;;;;;;;0.90;99.90;;;;;;5013000;28;19932;-69
2022/12/28 00:35:04;;;;;;;;;;;0.80;99.90;;;;;;5010297;28;19975;-70
2022/12/28 00:37:36;;;;;;;;;;;0.80;99.90;;;;;;4997748;28;19964;-70
2022/12/28 00:40:06;;;;;;;;;;;0.70;99.90;;;;;;5019596;28;20431;-71
2022/12/28 00:42:35;;;;;;;;;;;0.60;99.90;;;;;;5024533;28;20410;-69
2022/12/28 00:45:09;;;;;;;;;;;0.60;99.90;;;;;;5000307;28;19925;-70
2022/12/28 00:47:40;;;;;;;;;;;0.50;99.90;;;;;;5030492;28;19925;-69
2022/12/28 00:50:11;;;;;;;;;;;0.50;99.90;;;;;;5004330;28;19960;-69
2022/12/28 00:52:42;;;;;;;;;;;0.50;99.90;;;;;;4995994;28;20408;-70
2022/12/28 00:55:12;;;;;;;;;;;0.50;99.90;;;;;;4995825;28;19926;-71
2022/12/28 00:57:42;;;;;;;;;;;0.50;99.90;;;;;;4995423;28;19929;-70
2022/12/28 01:00:12;;;;;;;;;;;0.50;99.90;;;;;;5019357;28;20387;-69
2022/12/28 01:02:43;;;;;;;;;;;0.50;99.90;;;;;;5015442;28;19931;-70
2022/12/28 01:05:13;;;;;;;;;;;0.50;99.90;;;;;;5014591;28;19925;-69
2022/12/28 01:07:44;;;;;;;;;;;0.50;99.90;;;;;;5014592;28;20251;-70
2022/12/28 01:10:14;;;;;;;;;;;0.50;99.90;;;;;;5010880;28;20388;-70
2022/12/28 01:12:43;;;;;;;;;;;0.50;99.90;;;;;;4998275;28;19925;-69
2022/12/28 01:15:12;;;;;;;;;;;0.50;99.90;;;;;;5010343;28;19926;-69
2022/12/28 01:17:43;;;;;;;;;;;0.50;99.90;;;;;;5010686;28;19991;-69
2022/12/28 01:20:17;;;;;;;;;;;0.50;99.90;;;;;;5014424;28;19925;-69
2022/12/28 01:22:49;;;;;;;;;;;0.40;99.90;;;;;;5012776;28;19925;-70
2022/12/28 01:25:23;;;;;;;;;;;0.40;99.90;;;;;;5015849;28;19975;-69
2022/12/28 01:27:57;;;;;;;;;;;0.40;99.90;;;;;;5032236;28;20342;-69
2022/12/28 01:30:29;;;;;;;;;;;0.40;99.90;;;;;;5019716;28;19991;-70
2022/12/28 01:33:00;;;;;;;;;;;0.40;99.90;;;;;;4995477;28;19925;-70
2022/12/28 01:35:30;;;;;;;;;;;0.40;99.90;;;;;;5010611;28;19948;-70
2022/12/28 01:38:00;;;;;;;;;;;0.30;99.90;;;;;;5027664;28;20073;-70
2022/12/28 01:40:29;;;;;;;;;;;0.30;99.90;;;;;;4993555;28;19932;-70
2022/12/28 01:42:59;;;;;;;;;;;0.30;99.90;;;;;;5008770;28;19964;-70
2022/12/28 01:45:28;;;;;;;;;;;0.30;99.90;;;;;;4994537;28;19926;-70
2022/12/28 01:47:58;;;;;;;;;;;0.30;99.90;;;;;;5025685;28;19929;-70
2022/12/28 01:50:31;;;;;;;;;;;0.30;99.90;;;;;;5020428;28;19956;-70
2022/12/28 01:53:02;;;;;;;;;;;0.30;99.90;;;;;;5029917;28;19929;-71
2022/12/28 01:55:33;;;;;;;;;;;0.30;99.90;;;;;;5015181;28;19925;-71
2022/12/28 01:58:04;;;;;;;;;;;0.30;99.90;;;;;;5036234;28;19918;-72
2022/12/28 02:00:34;;;;;;;;;;;0.30;99.90;;;;;;5008223;28;19929;-70
2022/12/28 02:03:10;;;;;;;;;;;0.30;99.90;;;;;;5030209;28;19932;-70
2022/12/28 02:05:42;;;;;;;;;;;0.30;99.90;;;;;;5010782;28;19937;-69
2022/12/28 02:08:14;;;;;;;;;;;0.30;99.90;;;;;;5009946;28;19925;-70
2022/12/28 02:10:45;;;;;;;;;;;0.30;99.90;;;;;;5018944;28;19988;-69
2022/12/28 02:13:15;;;;;;;;;;;0.30;99.90;;;;;;5012749;28;19925;-70
2022/12/28 02:15:45;;;;;;;;;;;0.40;99.90;;;;;;5008338;28;19925;-70
2022/12/28 02:18:15;;;;;;;;;;;0.40;99.90;;;;;;5009702;28;20019;-70
2022/12/28 02:21:10;;;;;;;;;;;0.40;99.90;;;;;;5017712;28;19933;-70
2022/12/28 02:23:48;;;;;;;;;;;0.40;99.90;;;;;;5019808;28;19932;-70
2022/12/28 02:26:41;;;;;;;;;;;0.40;99.90;;;;;;4993650;28;19926;-70
2022/12/28 02:29:13;;;;;;;;;;;0.50;99.90;;;;;;4966691;28;19929;-70
2022/12/28 02:32:02;;;;;;;;;;;0.60;99.90;;;;;;5003810;28;19936;-69
2022/12/28 02:34:49;;;;;;;;;;;0.70;99.90;;;;;;4982939;28;19957;-71
2022/12/28 02:37:26;;;;;;;;;;;0.90;99.90;;;;;;4977567;28;19933;-69
2022/12/28 02:39:57;;;;;;;;;;;1.00;99.90;;;;;;4995425;28;20141;-71
2022/12/28 02:42:28;;;;;;;;;;;1.20;99.90;;;;;;5009191;28;19936;-70
2022/12/28 02:50:39;;;;;;;;;;;1.00;99.90;;;;;;5008478;28;20120;-70
2022/12/28 02:53:08;;;;;;;;;;;1.00;99.90;;;;;;4998314;28;19933;-70
2022/12/28 02:56:08;;;;;;;;;;;1.00;99.90;;;;;;5021228;28;19925;-70
2022/12/28 02:58:56;;;;;;;;;;;1.20;99.90;;;;;;4993624;28;19951;-70
2022/12/28 03:01:44;;;;;;;;;;;1.40;99.90;;;;;;5007066;28;20634;-70
2022/12/28 03:04:22;;;;;;;;;;;1.60;99.90;;;;;;5024221;28;20543;-70
2022/12/28 03:10:11;;;;;;;;;;;1.90;99.90;;;;;;5011857;28;19925;-70
2022/12/28 03:12:51;;;;;;;;;;;1.90;99.90;;;;;;5012410;28;19929;-70
2022/12/28 03:15:31;;;;;;;;;;;2.00;99.90;;;;;;5008440;28;19925;-69
2022/12/28 03:32:16;;;;;;;;;;;2.40;99.90;;;;;;5011983;28;20498;-69
2022/12/28 03:34:48;;;;;;;;;;;2.40;99.90;;;;;;5016210;28;19929;-70
2022/12/28 03:37:42;;;;;;;;;;;2.40;99.90;;;;;;5012486;28;19932;-70
2022/12/28 03:40:13;;;;;;;;;;;2.40;99.90;;;;;;5020151;28;19925;-70
2022/12/28 03:45:43;;;;;;;;;;;2.50;99.90;;;;;;5011201;28;20986;-73
2022/12/28 03:48:12;;;;;;;;;;;2.60;99.90;;;;;;5022985;28;20009;-70
2022/12/28 03:50:44;;;;;;;;;;;2.60;99.90;;;;;;5022825;28;19928;-70
2022/12/28 03:53:16;;;;;;;;;;;2.70;99.90;;;;;;5012732;28;19933;-70
2022/12/28 03:55:45;;;;;;;;;;;2.90;99.90;;;;;;5025064;28;19932;-70
2022/12/28 03:58:17;;;;;;;;;;;3.00;99.90;;;;;;5015176;28;19929;-71
2022/12/28 04:01:01;;;;;;;;;;;3.00;99.90;;;;;;4999339;28;19925;-70
2022/12/28 04:03:30;;;;;;;;;;;3.10;99.90;;;;;;5015492;28;19925;-70
2022/12/28 04:05:58;;;;;;;;;;;3.10;99.90;;;;;;5031873;28;19925;-70
2022/12/28 04:08:30;;;;;;;;;;;3.10;99.90;;;;;;5030710;28;20368;-70
2022/12/28 04:10:59;;;;;;;;;;;3.20;99.90;;;;;;5014157;28;19995;-71
2022/12/28 04:13:28;;;;;;;;;;;3.20;99.90;;;;;;5015381;28;19924;-70
2022/12/28 04:16:07;;;;;;;;;;;3.20;99.90;;;;;;4980157;28;19925;-71
2022/12/28 04:18:36;;;;;;;;;;;3.20;99.90;;;;;;4996186;28;20434;-70
2022/12/28 04:21:05;;;;;;;;;;;3.20;99.90;;;;;;5024417;28;19992;-71
2022/12/28 04:23:34;;;;;;;;;;;3.30;99.90;;;;;;5014696;28;21010;-70
2022/12/28 04:26:14;;;;;;;;;;;3.20;99.90;;;;;;5015969;28;19925;-70
2022/12/28 04:28:45;;;;;;;;;;;3.30;99.90;;;;;;5004010;28;19979;-70
2022/12/28 04:31:32;;;;;;;;;;;3.30;99.90;;;;;;5012148;28;19953;-69
2022/12/28 04:34:06;;;;;;;;;;;3.40;99.90;;;;;;5022130;28;19984;-69
2022/12/28 04:36:41;;;;;;;;;;;3.40;99.90;;;;;;5012013;28;19930;-70
2022/12/28 04:39:16;;;;;;;;;;;3.40;99.90;;;;;;5011365;28;19925;-70
2022/12/28 04:41:45;;;;;;;;;;;3.40;99.90;;;;;;5011574;28;19925;-70
2022/12/28 04:44:15;;;;;;;;;;;3.30;99.90;;;;;;5016599;28;20315;-70
2022/12/28 04:46:44;;;;;;;;;;;3.30;99.90;;;;;;5011779;28;19926;-70
2022/12/28 04:49:14;;;;;;;;;;;3.30;99.90;;;;;;5011988;28;19931;-70
2022/12/28 04:51:43;;;;;;;;;;;3.30;99.90;;;;;;5008092;28;19925;-70
2022/12/28 04:54:13;;;;;;;;;;;3.40;99.90;;;;;;5020537;28;19934;-76
2022/12/28 04:56:42;;;;;;;;;;;3.40;99.90;;;;;;5046185;28;19929;-72
2022/12/28 04:59:12;;;;;;;;;;;3.40;99.90;;;;;;5003709;28;20001;-71
2022/12/28 05:01:42;;;;;;;;;;;3.40;99.90;;;;;;5012370;28;19931;-71
2022/12/28 05:04:13;;;;;;;;;;;3.40;99.90;;;;;;5014789;28;19945;-70
2022/12/28 05:06:44;;;;;;;;;;;3.40;99.90;;;;;;4995598;28;19933;-70
2022/12/28 05:09:13;;;;;;;;;;;3.50;99.90;;;;;;5012772;28;19973;-70
2022/12/28 05:11:42;;;;;;;;;;;3.40;99.90;;;;;;5007932;28;20388;-72
2022/12/28 05:14:11;;;;;;;;;;;3.50;99.90;;;;;;4994575;28;19926;-70
2022/12/28 05:16:40;;;;;;;;;;;3.50;99.90;;;;;;5010436;28;19925;-70
2022/12/28 05:19:09;;;;;;;;;;;3.50;99.90;;;;;;5013561;28;20119;-71
2022/12/28 05:21:39;;;;;;;;;;;3.50;99.90;;;;;;5003443;28;20434;-70
2022/12/28 05:24:08;;;;;;;;;;;3.60;99.90;;;;;;5021730;28;19933;-71
2022/12/28 05:26:38;;;;;;;;;;;3.60;99.90;;;;;;5030978;28;20453;-72
2022/12/28 05:29:22;;;;;;;;;;;3.70;99.90;;;;;;5013293;28;20384;-72
2022/12/28 05:32:17;;;;;;;;;;;3.70;99.90;;;;;;5014916;28;20386;-75
2022/12/28 05:34:48;;;;;;;;;;;3.80;99.90;;;;;;5014520;28;19925;-70
2022/12/28 05:37:19;;;;;;;;;;;3.80;99.90;;;;;;5014389;28;19925;-70
2022/12/28 05:39:52;;;;;;;;;;;3.80;99.90;;;;;;5022729;28;20294;-70
2022/12/28 05:42:21;;;;;;;;;;;3.90;99.90;;;;;;5002431;28;19972;-70
2022/12/28 05:44:51;;;;;;;;;;;4.00;99.90;;;;;;5030506;28;20023;-70
2022/12/28 05:47:20;;;;;;;;;;;4.00;99.90;;;;;;5010474;28;19980;-70
2022/12/28 05:49:49;;;;;;;;;;;4.00;99.90;;;;;;5021687;28;19929;-71
2022/12/28 05:52:18;;;;;;;;;;;4.10;99.90;;;;;;5025086;28;19979;-69
2022/12/28 05:54:47;;;;;;;;;;;4.10;99.90;;;;;;4993664;28;19929;-70
2022/12/28 05:57:16;;;;;;;;;;;4.20;99.90;;;;;;5026178;28;19932;-70
2022/12/28 05:59:45;;;;;;;;;;;4.20;99.90;;;;;;5008768;28;20020;-70
2022/12/28 06:02:24;;;;;;;;;;;4.20;99.90;;;;;;5013000;28;19925;-70
2022/12/28 06:04:54;;;;;;;;;;;4.20;99.90;;;;;;4995756;28;19925;-71
2022/12/28 06:07:23;;;;;;;;;;;4.30;99.90;;;;;;5010521;28;19925;-70
2022/12/28 06:09:57;;;;;;;;;;;4.30;99.90;;;;;;5017353;28;20023;-69
2022/12/28 06:12:30;;;;;;;;;;;4.30;99.90;;;;;;4997992;28;20380;-71
2022/12/28 06:14:59;;;;;;;;;;;4.30;99.90;;;;;;4997286;28;20339;-70
2022/12/28 06:17:26;;;;;;;;;;;4.30;99.90;;;;;;5010388;28;20013;-71
2022/12/28 06:19:56;;;;;;;;;;;4.30;99.90;;;;;;4998210;28;19965;-70
2022/12/28 06:22:25;;;;;;;;;;;4.40;99.90;;;;;;5007572;28;19925;-70
2022/12/28 06:24:54;;;;;;;;;;;4.40;99.90;;;;;;4992613;28;20032;-70
2022/12/28 06:27:23;;;;;;;;;;;4.40;99.90;;;;;;5018823;28;20390;-70
2022/12/28 06:29:52;;;;;;;;;;;4.40;99.90;;;;;;5011674;28;19976;-71
2022/12/28 06:32:21;;;;;;;;;;;4.40;99.90;;;;;;4978169;28;20016;-70
2022/12/28 06:34:51;;;;;;;;;;;4.40;99.90;;;;;;5001355;28;20388;-70
2022/12/28 06:37:20;;;;;;;;;;;4.40;99.90;;;;;;4995309;28;19925;-71
2022/12/28 06:39:48;;;;;;;;;;;4.40;99.90;;;;;;5011883;28;19929;-70
2022/12/28 06:42:19;;;;;;;;;;;4.40;99.90;;;;;;5012411;28;19941;-71
2022/12/28 06:44:48;;;;;;;;;;;4.50;99.90;;;;;;5013351;28;19932;-71
2022/12/28 06:47:16;;;;;;;;;;;4.50;99.90;;;;;;4997270;28;19932;-70
2022/12/28 06:49:47;;;;;;;;;;;4.50;99.90;;;;;;5012340;28;19925;-70
2022/12/28 06:52:16;;;;;;;;;;;4.60;99.90;;;;;;5012157;28;19925;-70
2022/12/28 06:54:45;;;;;;;;;;;4.60;99.90;;;;;;5012750;28;19926;-71
2022/12/28 06:57:16;;;;;;;;;;;4.60;99.90;;;;;;4997881;28;19925;-69
2022/12/28 06:59:45;;;;;;;;;;;4.60;99.90;;;;;;5028369;28;19925;-69
2022/12/28 07:02:14;;;;;;;;;;;4.60;99.90;;;;;;5028557;28;19932;-69
2022/12/28 07:04:49;;;;;;;;;;;4.60;99.90;;;;;;5010240;28;19925;-72
2022/12/28 07:07:16;;;;;;;;;;;4.60;99.90;;;;;;5013836;28;19925;-72
2022/12/28 07:09:47;;;;;;;;;;;4.60;99.90;;;;;;5027343;28;19971;-70
2022/12/28 07:12:19;;;;;;;;;;;4.60;99.90;;;;;;5032339;28;19932;-70
2022/12/28 07:14:52;;;;;;;;;;;4.50;99.90;;;;;;5014278;28;19952;-70
2022/12/28 07:17:26;;;;;;;;;;;4.60;99.90;;;;;;5029939;28;20354;-70
2022/12/28 07:19:55;;;;;;;;;;;4.50;99.90;;;;;;5009901;28;19979;-70
2022/12/28 07:22:25;;;;;;;;;;;4.60;99.90;;;;;;5010590;28;20008;-70
2022/12/28 07:24:56;;;;;;;;;;;4.60;99.90;;;;;;5028830;28;19929;-71
2022/12/28 07:27:25;;;;;;;;;;;4.60;99.90;;;;;;5011778;28;19940;-71
2022/12/28 07:29:54;;;;;;;;;;;4.60;99.90;;;;;;4992608;28;19933;-71
2022/12/28 07:32:25;;;;;;;;;;;4.60;99.90;;;;;;5030044;28;19925;-70
2022/12/28 07:34:58;;;;;;;;;;;4.60;99.90;;;;;;5013228;28;20404;-70
2022/12/28 07:37:40;;;;;;;;;;;4.60;99.90;;;;;;5010647;28;20436;-72
2022/12/28 07:40:10;;;;;;;;;;;4.60;99.90;;;;;;5025813;28;19932;-72
2022/12/28 07:42:41;;;;;;;;;;;4.60;99.90;;;;;;5013440;28;19964;-70
2022/12/28 07:45:11;;;;;;;;;;;4.60;99.90;;;;;;5028899;28;19929;-71
2022/12/28 07:47:40;;;;;;;;;;;4.60;99.90;;;;;;5014278;28;20407;-70
2022/12/28 07:50:11;;;;;;;;;;;4.60;99.90;;;;;;5012422;28;19929;-70
2022/12/28 07:52:44;;;;;;;;;;;4.70;99.90;;;;;;5024837;28;19925;-74
2022/12/28 07:55:15;;;;;;;;;;;4.70;99.90;;;;;;5039221;28;19917;-72
2022/12/28 07:57:44;;;;;;;;;;;4.80;99.90;;;;;;5017924;28;19961;-71
2022/12/28 08:00:13;;;;;;;;;;;4.80;99.90;;;;;;5012082;28;19932;-70
2022/12/28 08:02:43;;;;;;;;;;;4.80;99.90;;;;;;5012110;28;20048;-70
2022/12/28 08:05:27;;;;;;;;;;;4.80;99.90;;;;;;5025632;28;19933;-71
2022/12/28 08:07:56;;;;;;;;;;;4.80;99.90;;;;;;4999060;28;20387;-70
2022/12/28 08:10:42;;;;;;;;;;;4.90;99.90;;;;;;4990926;28;19955;-73
2022/12/28 08:13:16;;;;;;;;;;;4.90;99.90;;;;;;5009099;28;19933;-70
2022/12/28 08:15:52;;;;;;;;;;;4.90;99.90;;;;;;5009112;28;19936;-70
2022/12/28 08:18:21;;;;;;;;;;;4.90;99.90;;;;;;5030322;28;19933;-70
2022/12/28 08:20:50;;;;;;;;;;;4.90;99.90;;;;;;5012912;28;19925;-70
2022/12/28 08:23:18;;;;;;;;;;;5.00;99.90;;;;;;4990787;28;19956;-70
2022/12/28 08:25:47;;;;;;;;;;;5.00;99.90;;;;;;4997999;28;19925;-71
2022/12/28 08:28:21;;;;;;;;;;;5.00;99.90;;;;;;5028692;28;19933;-70
2022/12/28 08:30:52;;;;;;;;;;;5.10;99.90;;;;;;5015400;28;19933;-70
2022/12/28 08:33:21;;;;;;;;;;;5.10;99.90;;;;;;4997881;28;19932;-71
2022/12/28 08:35:50;;;;;;;;;;;5.10;99.90;;;;;;5015673;28;20043;-70
2022/12/28 08:38:19;;;;;;;;;;;5.10;99.90;;;;;;4993680;28;19925;-71
2022/12/28 08:40:58;;;;;;;;;;;5.20;99.90;;;;;;5013152;28;19941;-70
2022/12/28 08:43:27;;;;;;;;;;;5.20;99.90;;;;;;4994888;28;19929;-70
2022/12/28 08:46:03;;;;;;;;;;;5.30;99.90;;;;;;5025256;28;19933;-70
2022/12/28 08:48:34;;;;;;;;;;;5.30;99.90;;;;;;4994240;28;19932;-69
2022/12/28 08:51:07;;;;;;;;;;;5.40;99.90;;;;;;5011678;28;19936;-71
2022/12/28 08:53:36;;;;;;;;;;;5.40;99.90;;;;;;5009781;28;20047;-69
2022/12/28 08:56:09;;;;;;;;;;;5.40;99.90;;;;;;5010845;28;19925;-71
2022/12/28 08:58:38;;;;;;;;;;;5.50;99.90;;;;;;5012726;28;19925;-70
2022/12/28 09:01:11;;;;;;;;;;;5.60;99.90;;;;;;5011335;28;19929;-70
2022/12/28 09:03:43;;;;;;;;;;;5.60;99.90;;;;;;4999041;28;19925;-70
2022/12/28 09:06:13;;;;;;;;;;;5.70;99.90;;;;;;5012821;28;19931;-71
2022/12/28 09:08:48;;;;;;;;;;;5.70;99.90;;;;;;4996222;28;19926;-71
2022/12/28 09:11:17;;;;;;;;;;;5.80;99.90;;;;;;5010252;28;19925;-69
2022/12/28 09:13:46;;;;;;;;;;;5.80;99.90;;;;;;5014590;28;20020;-70
2022/12/28 09:16:28;;;;;;;;;;;5.90;99.90;;;;;;4997914;28;20407;-71
2022/12/28 09:19:00;;;;;;;;;;;6.00;99.90;;;;;;5012557;28;20384;-70
2022/12/28 09:21:31;;;;;;;;;;;6.00;99.90;;;;;;4994017;28;19925;-70
2022/12/28 09:24:02;;;;;;;;;;;6.10;99.90;;;;;;4996733;28;19932;-72
2022/12/28 09:26:33;;;;;;;;;;;6.10;99.90;;;;;;5012246;28;19925;-69
2022/12/28 09:29:04;;;;;;;;;;;6.10;99.90;;;;;;5012313;28;19925;-69
2022/12/28 09:31:35;;;;;;;;;;;6.10;99.90;;;;;;4993379;28;20015;-70
2022/12/28 09:34:04;;;;;;;;;;;6.10;99.90;;;;;;4993924;28;19935;-70
2022/12/28 09:36:40;;;;;;;;;;;6.10;99.90;;;;;;5012990;28;20340;-70
2022/12/28 09:39:12;;;;;;;;;;;6.20;99.90;;;;;;4995236;28;20308;-71
2022/12/28 09:41:58;;;;;;;;;;;6.20;99.90;;;;;;4996722;28;19960;-70
2022/12/28 09:44:36;;;;;;;;;;;6.20;99.90;;;;;;5007982;28;20347;-71
2022/12/28 09:47:31;;;;;;;;;;;6.20;99.90;;;;;;5024245;28;19936;-71
2022/12/28 09:50:02;;;;;;;;;;;6.20;99.90;;;;;;5009735;28;19933;-70
2022/12/28 09:52:35;;;;;;;;;;;6.30;99.90;;;;;;5029111;28;20050;-70
2022/12/28 09:55:13;;;;;;;;;;;6.20;99.90;;;;;;4996019;28;19933;-71
2022/12/28 09:57:50;;;;;;;;;;;6.20;99.90;;;;;;5012421;28;19925;-71
2022/12/28 10:00:26;;;;;;;;;;;6.20;99.90;;;;;;5009028;28;20419;-69
2022/12/28 10:03:02;;;;;;;;;;;6.20;99.90;;;;;;5012562;28;19932;-70
2022/12/28 10:05:34;;;;;;;;;;;6.20;99.90;;;;;;5014410;28;19928;-70
2022/12/28 10:08:05;;;;;;;;;;;6.20;99.90;;;;;;5028610;28;20011;-70
2022/12/28 10:10:34;;;;;;;;;;;6.20;99.90;;;;;;4992834;28;19932;-70
2022/12/28 10:13:11;;;;;;;;;;;6.20;99.90;;;;;;4989012;28;19990;-72
2022/12/28 10:15:49;;;;;;;;;;;6.20;99.90;;;;;;5012697;28;19925;-72
2022/12/28 10:18:36;;;;;;;;;;;6.20;99.90;;;;;;5016115;28;19929;-71
2022/12/28 10:21:05;;;;;;;;;;;6.20;99.90;;;;;;5007824;28;19931;-72
2022/12/28 10:23:34;;;;;;;;;;;6.20;99.90;;;;;;5016443;28;20028;-71
2022/12/28 10:26:04;;;;;;;;;;;6.30;99.90;;;;;;5008506;28;19925;-71
2022/12/28 10:28:40;;;;;;;;;;;6.30;99.90;;;;;;5015113;28;19925;-70
2022/12/28 10:31:11;;;;;;;;;;;6.30;99.90;;;;;;5005063;28;19979;-71
2022/12/28 10:33:59;;;;;;;;;;;6.40;99.90;;;;;;5009984;28;20045;-72
2022/12/28 10:36:34;;;;;;;;;;;6.40;99.90;;;;;;5012613;28;20638;-72
2022/12/28 10:39:07;;;;;;;;;;;6.50;99.90;;;;;;5008767;28;20426;-69
2022/12/28 10:41:37;;;;;;;;;;;6.60;99.90;;;;;;5012175;28;19932;-71
2022/12/28 10:44:24;;;;;;;;;;;6.70;99.90;;;;;;5013236;28;19931;-71
2022/12/28 10:47:01;;;;;;;;;;;6.70;99.90;;;;;;4999708;28;19929;-72
2022/12/28 10:49:35;;;;;;;;;;;6.80;99.90;;;;;;5032585;28;19933;-70
2022/12/28 10:52:03;;;;;;;;;;;6.80;99.90;;;;;;5040210;28;20015;-70
2022/12/28 10:54:35;;;;;;;;;;;6.90;99.90;;;;;;5022747;28;19925;-72
2022/12/28 10:57:04;;;;;;;;;;;6.90;99.90;;;;;;5021989;28;19929;-72
2022/12/28 10:59:38;;;;;;;;;;;6.90;99.90;;;;;;4997385;28;19928;-71
2022/12/28 11:02:18;;;;;;;;;;;6.90;99.90;;;;;;4997513;28;20024;-70
2022/12/28 11:05:13;;;;;;;;;;;7.00;99.90;;;;;;5012645;28;19992;-72
2022/12/28 11:07:45;;;;;;;;;;;6.90;99.90;;;;;;5012058;28;20131;-72
2022/12/28 11:10:14;;;;;;;;;;;7.00;99.90;;;;;;5009933;28;19929;-71
2022/12/28 11:12:44;;;;;;;;;;;7.00;99.90;;;;;;5012391;28;19937;-72
2022/12/28 11:15:20;;;;;;;;;;;7.00;99.90;;;;;;4979780;28;20315;-72
2022/12/28 11:17:59;;;;;;;;;;;7.10;99.90;;;;;;5014428;28;19933;-70
2022/12/28 11:20:34;;;;;;;;;;;7.10;99.90;;;;;;5006668;28;20304;-70
2022/12/28 11:23:08;;;;;;;;;;;7.20;99.90;;;;;;5019616;28;19932;-70
2022/12/28 11:25:41;;;;;;;;;;;7.20;99.90;;;;;;5015934;28;19925;-70
2022/12/28 11:28:14;;;;;;;;;;;7.30;99.90;;;;;;5012105;28;19961;-71
2022/12/28 11:30:45;;;;;;;;;;;7.30;99.90;;;;;;5008784;28;19925;-69
2022/12/28 11:33:33;;;;;;;;;;;7.40;99.90;;;;;;5011709;28;19975;-72
2022/12/28 11:36:04;;;;;;;;;;;7.50;99.90;;;;;;5029109;28;19977;-71
2022/12/28 11:38:38;;;;;;;;;;;7.50;99.90;;;;;;4996473;28;19944;-71
2022/12/28 11:41:22;;;;;;;;;;;7.70;99.90;;;;;;4992660;28;19925;-72
2022/12/28 11:43:55;;;;;;;;;;;7.80;99.90;;;;;;5027587;28;19925;-72
2022/12/28 11:46:24;;;;;;;;;;;7.90;99.90;;;;;;5027975;28;19925;-72
2022/12/28 11:48:53;;;;;;;;;;;8.00;99.90;;;;;;5013603;28;20664;-72
2022/12/28 11:51:32;;;;;;;;;;;8.10;99.90;;;;;;5011069;28;20300;-71
2022/12/28 11:54:03;;;;;;;;;;;8.20;99.90;;;;;;5030233;28;19960;-72
2022/12/28 11:57:04;;;;;;;;;;;8.30;99.90;;;;;;5027966;28;20310;-71
2022/12/28 11:59:37;;;;;;;;;;;8.40;99.90;;;;;;5029143;28;19964;-71
2022/12/28 12:02:08;;;;;;;;;;;8.30;99.90;;;;;;4994042;28;19928;-70
2022/12/28 12:04:41;;;;;;;;;;;8.30;99.90;;;;;;5008520;28;19933;-72
2022/12/28 12:07:12;;;;;;;;;;;8.30;99.90;;;;;;5013197;28;19983;-71
2022/12/28 12:09:44;;;;;;;;;;;8.30;99.90;;;;;;5012443;28;19982;-71
2022/12/28 12:12:12;;;;;;;;;;;8.30;99.90;;;;;;5009898;28;20036;-72
2022/12/28 12:14:43;;;;;;;;;;;8.40;99.90;;;;;;4979171;28;19933;-72
2022/12/28 12:17:13;;;;;;;;;;;8.60;99.90;;;;;;5001061;28;19932;-72
2022/12/28 12:19:48;;;;;;;;;;;8.70;99.90;;;;;;5008481;28;19936;-72
2022/12/28 12:22:34;;;;;;;;;;;8.80;99.90;;;;;;5005740;28;19929;-72
2022/12/28 12:25:06;;;;;;;;;;;8.80;99.90;;;;;;5014099;28;19929;-72
2022/12/28 12:27:40;;;;;;;;;;;8.90;99.90;;;;;;5009860;28;19929;-72
2022/12/28 12:30:13;;;;;;;;;;;8.80;99.90;;;;;;5000867;28;20027;-72
2022/12/28 12:32:46;;;;;;;;;;;8.80;99.90;;;;;;4995357;28;19936;-72
2022/12/28 12:35:17;;;;;;;;;;;9.00;99.90;;;;;;4997584;28;19960;-71
2022/12/28 12:38:01;;;;;;;;;;;9.00;99.90;;;;;;5012881;28;19929;-72
2022/12/28 12:40:33;;;;;;;;;;;9.00;99.90;;;;;;5007625;28;20045;-72
2022/12/28 12:43:11;;;;;;;;;;;9.10;99.90;;;;;;5012330;28;19929;-71
2022/12/28 12:45:58;;;;;;;;;;;9.10;99.90;;;;;;5028909;28;19968;-69
2022/12/28 12:48:46;;;;;;;;;;;9.10;99.90;;;;;;5026341;28;19932;-73
2022/12/28 12:51:34;;;;;;;;;;;9.10;99.90;;;;;;5012951;28;19925;-72
2022/12/28 12:54:25;;;;;;;;;;;9.20;99.90;;;;;;5009772;28;19979;-72
2022/12/28 12:57:10;;;;;;;;;;;9.20;99.90;;;;;;5017884;28;20531;-72
2022/12/28 13:00:09;;;;;;;;;;;9.10;99.90;;;;;;5023511;28;20343;-72
2022/12/28 13:02:49;;;;;;;;;;;8.90;99.90;;;;;;5029520;28;19948;-72
2022/12/28 13:05:20;;;;;;;;;;;8.90;99.90;;;;;;5016232;28;20031;-73
2022/12/28 13:07:57;;;;;;;;;;;8.80;99.90;;;;;;5012502;28;20023;-72
2022/12/28 13:10:27;;;;;;;;;;;8.70;99.90;;;;;;5009923;28;20387;-70
2022/12/28 13:12:56;;;;;;;;;;;8.70;99.90;;;;;;4991814;28;20469;-73
2022/12/28 13:15:24;;;;;;;;;;;8.70;99.90;;;;;;5010839;28;19948;-72
2022/12/28 13:18:18;;;;;;;;;;;8.70;99.90;;;;;;4999542;28;20384;-73
2022/12/28 13:20:56;;;;;;;;;;;8.60;99.90;;;;;;5004866;28;19925;-73
2022/12/28 13:23:28;;;;;;;;;;;8.50;99.90;;;;;;5029078;28;19925;-73
2022/12/28 13:25:57;;;;;;;;;;;8.50;99.90;;;;;;5006553;28;19926;-72
2022/12/28 13:28:30;;;;;;;;;;;8.40;99.90;;;;;;5015629;28;19929;-71
2022/12/28 13:31:12;;;;;;;;;;;8.30;99.90;;;;;;5005618;28;19980;-73
2022/12/28 13:33:41;;;;;;;;;;;8.20;99.90;;;;;;5028875;28;20032;-70
2022/12/28 13:36:12;;;;;;;;;;;8.20;99.90;;;;;;5005326;28;19933;-73
2022/12/28 13:38:42;;;;;;;;;;;8.20;99.90;;;;;;5028119;28;20379;-73
2022/12/28 13:41:19;;;;;;;;;;;8.20;99.90;;;;;;5008110;28;20138;-73
2022/12/28 13:43:53;;;;;;;;;;;8.20;99.90;;;;;;5025668;28;20442;-71
2022/12/28 13:46:24;;;;;;;;;;;8.20;99.90;;;;;;5012075;28;19934;-73
2022/12/28 13:48:56;;;;;;;;;;;8.30;99.90;;;;;;5002761;28;19939;-70
2022/12/28 13:51:27;;;;;;;;;;;8.20;99.90;;;;;;5019091;28;19925;-72
2022/12/28 13:53:59;;;;;;;;;;;8.30;99.90;;;;;;5032191;28;19936;-73
2022/12/28 13:56:29;;;;;;;;;;;8.40;99.90;;;;;;5024716;28;19932;-73
2022/12/28 13:59:00;;;;;;;;;;;8.50;99.90;;;;;;5011636;28;19931;-73
2022/12/28 14:01:34;;;;;;;;;;;8.50;99.90;;;;;;5008339;28;19929;-73
2022/12/28 14:04:05;;;;;;;;;;;8.50;99.90;;;;;;5010513;28;19925;-73
2022/12/28 14:06:33;;;;;;;;;;;8.50;99.90;;;;;;5012260;28;19965;-73
2022/12/28 14:09:01;;;;;;;;;;;8.50;99.90;;;;;;5022924;28;20376;-73
2022/12/28 14:11:30;;;;;;;;;;;8.60;99.90;;;;;;4993192;28;20327;-71
2022/12/28 14:14:00;;;;;;;;;;;8.60;99.90;;;;;;5024665;28;20462;-71
2022/12/28 14:16:30;;;;;;;;;;;8.70;99.90;;;;;;4993009;28;20296;-72
2022/12/28 14:18:59;;;;;;;;;;;8.80;99.90;;;;;;5009294;28;20462;-73
2022/12/28 14:21:43;;;;;;;;;;;8.80;99.90;;;;;;5008737;28;20307;-73
2022/12/28 14:24:13;;;;;;;;;;;8.90;99.90;;;;;;5007450;28;20393;-70
2022/12/28 14:26:47;;;;;;;;;;;8.90;99.90;;;;;;5019995;28;20019;-73
2022/12/28 14:29:20;;;;;;;;;;;9.00;99.90;;;;;;5013992;28;20364;-72
2022/12/28 14:31:54;;;;;;;;;;;9.00;99.90;;;;;;5002483;28;19931;-72
2022/12/28 14:34:25;;;;;;;;;;;9.00;99.90;;;;;;5009870;28;19972;-72
2022/12/28 14:36:55;;;;;;;;;;;8.90;99.90;;;;;;4997129;28;19980;-73
2022/12/28 14:39:26;;;;;;;;;;;8.80;99.90;;;;;;4997268;28;20418;-73
2022/12/28 14:41:56;;;;;;;;;;;8.70;99.90;;;;;;5005578;28;19929;-73
2022/12/28 14:44:43;;;;;;;;;;;8.60;99.90;;;;;;5013161;28;20343;-72
2022/12/28 14:47:31;;;;;;;;;;;8.50;99.90;;;;;;5008002;28;19925;-71
2022/12/28 14:50:01;;;;;;;;;;;8.40;99.90;;;;;;5012951;28;19936;-73
2022/12/28 14:52:42;;;;;;;;;;;8.30;99.90;;;;;;5010260;28;20369;-72
2022/12/28 14:55:28;;;;;;;;;;;8.30;99.90;;;;;;5011843;28;19925;-73
2022/12/28 14:57:59;;;;;;;;;;;8.20;99.90;;;;;;5010746;28;20527;-72
2022/12/28 15:00:30;;;;;;;;;;;8.10;99.90;;;;;;4999533;28;20023;-73
2022/12/28 15:03:18;;;;;;;;;;;8.00;99.90;;;;;;5011321;28;19926;-72
2022/12/28 15:05:51;;;;;;;;;;;8.00;99.90;;;;;;4992480;28;19932;-73
2022/12/28 15:08:21;;;;;;;;;;;7.90;99.90;;;;;;5011560;28;20391;-72
2022/12/28 15:10:52;;;;;;;;;;;7.80;99.90;;;;;;5011583;28;20339;-73
2022/12/28 15:13:25;;;;;;;;;;;7.70;99.90;;;;;;5024547;28;19971;-73
2022/12/28 15:16:18;;;;;;;;;;;7.60;99.90;;;;;;5024882;28;19913;-73
2022/12/28 15:18:52;;;;;;;;;;;7.40;99.90;;;;;;5011597;28;20332;-72
2022/12/28 15:21:22;;;;;;;;;;;7.40;99.90;;;;;;5009729;28;20354;-71
2022/12/28 15:23:55;;;;;;;;;;;7.30;99.90;;;;;;5010824;28;20376;-71
2022/12/28 15:26:28;;;;;;;;;;;7.20;99.90;;;;;;5005589;28;19931;-71
2022/12/28 15:29:02;;;;;;;;;;;7.20;99.90;;;;;;4997865;28;19929;-72
2022/12/28 15:31:32;;;;;;;;;;;7.10;99.90;;;;;;4997432;28;20488;-70
2022/12/28 15:34:02;;;;;;;;;;;7.10;99.90;;;;;;5010968;28;20387;-71